createdAt,value
2019-03-26T00:01:06.808Z,9.00
2019-03-26T00:03:35.317Z,7.80
2019-03-26T00:06:03.864Z,8.73
2019-03-26T00:08:32.323Z,9.33
2019-03-26T00:11:00.815Z,8.37
2019-03-26T00:13:29.265Z,20.87
2019-03-26T00:15:57.761Z,8.90
2019-03-26T00:18:26.208Z,9.83
2019-03-26T00:20:54.655Z,9.77
2019-03-26T00:23:23.165Z,10.30
2019-03-26T00:25:51.602Z,10.97
2019-03-26T00:28:20.041Z,9.77
2019-03-26T00:30:48.484Z,10.37
2019-03-26T00:33:16.921Z,10.60
2019-03-26T00:35:45.370Z,10.40
2019-03-26T00:38:13.818Z,21.17
2019-03-26T00:40:42.258Z,10.33
2019-03-26T00:43:10.709Z,13.00
2019-03-26T00:45:39.154Z,11.73
2019-03-26T00:48:07.604Z,12.57
2019-03-26T00:50:36.152Z,20.70
2019-03-26T00:53:04.666Z,11.23
2019-03-26T00:55:33.114Z,12.33
2019-03-26T00:58:01.919Z,12.43
2019-03-26T01:00:38.297Z,11.93
2019-03-26T01:03:06.835Z,11.00
2019-03-26T01:05:35.312Z,11.77
2019-03-26T01:08:03.813Z,14.20
2019-03-26T01:10:32.270Z,14.07
2019-03-26T01:13:00.713Z,12.80
2019-03-26T01:15:29.210Z,14.90
2019-03-26T01:17:57.827Z,12.20
2019-03-26T01:20:26.426Z,12.50
2019-03-26T01:22:54.943Z,14.30
2019-03-26T01:25:23.402Z,14.37
2019-03-26T01:27:51.842Z,12.63
2019-03-26T01:30:20.326Z,21.67
2019-03-26T01:32:48.780Z,36.03
2019-03-26T01:35:17.259Z,17.90
2019-03-26T01:37:45.717Z,19.30
2019-03-26T01:40:14.187Z,32.03
2019-03-26T01:42:42.697Z,30.53
2019-03-26T01:45:11.391Z,23.63
2019-03-26T01:47:39.863Z,29.40
2019-03-26T01:50:08.402Z,19.87
2019-03-26T01:52:36.932Z,36.67
2019-03-26T01:55:06.857Z,26.23
2019-03-26T01:57:35.322Z,49.50
2019-03-26T02:00:05.439Z,14.80
2019-03-26T02:02:34.012Z,9.97
2019-03-26T02:05:02.658Z,7.93
2019-03-26T02:07:31.187Z,8.63
2019-03-26T02:09:59.660Z,8.10
2019-03-26T02:12:28.141Z,7.93
2019-03-26T02:14:56.671Z,7.63
2019-03-26T02:17:25.111Z,11.07
2019-03-26T02:19:53.537Z,10.17
2019-03-26T02:22:21.996Z,9.47
2019-03-26T02:24:50.441Z,9.80
2019-03-26T02:27:18.897Z,9.50
2019-03-26T02:29:47.341Z,11.37
2019-03-26T02:32:15.803Z,9.17
2019-03-26T02:34:44.316Z,9.53
2019-03-26T02:37:12.781Z,10.60
2019-03-26T02:39:41.263Z,7.33
2019-03-26T02:42:10.623Z,9.67
2019-03-26T02:44:39.145Z,9.90
2019-03-26T02:47:07.673Z,8.90
2019-03-26T02:49:36.253Z,10.00
2019-03-26T02:52:04.884Z,7.50
2019-03-26T02:54:33.507Z,9.37
2019-03-26T02:57:02.051Z,8.90
2019-03-26T02:59:30.639Z,9.57
2019-03-26T03:01:59.420Z,7.30
2019-03-26T03:04:28.088Z,9.23
2019-03-26T03:06:56.675Z,8.60
2019-03-26T03:09:25.312Z,8.13
2019-03-26T03:11:54.019Z,8.93
2019-03-26T03:14:22.609Z,8.13
2019-03-26T03:16:51.235Z,9.00
2019-03-26T03:19:19.900Z,8.00
2019-03-26T03:21:48.561Z,7.73
2019-03-26T03:24:17.145Z,8.23
2019-03-26T03:26:45.741Z,8.10
2019-03-26T03:29:14.351Z,7.43
2019-03-26T03:31:42.855Z,8.20
2019-03-26T03:34:11.492Z,7.27
2019-03-26T03:36:40.036Z,7.17
2019-03-26T03:39:08.820Z,7.17
2019-03-26T03:41:37.515Z,7.47
2019-03-26T03:44:06.042Z,7.30
2019-03-26T03:46:34.688Z,6.87
2019-03-26T03:49:03.533Z,6.40
2019-03-26T03:51:33.754Z,6.10
2019-03-26T03:54:02.471Z,5.00
2019-03-26T03:56:31.988Z,5.33
2019-03-26T03:59:01.694Z,6.10
2019-03-26T04:01:30.259Z,5.10
2019-03-26T04:03:58.896Z,5.00
2019-03-26T04:06:27.468Z,5.13
2019-03-26T04:08:56.084Z,4.83
2019-03-26T04:11:24.734Z,6.10
2019-03-26T04:13:53.376Z,4.37
2019-03-26T04:16:21.941Z,4.50
2019-03-26T04:18:50.557Z,4.93
2019-03-26T04:21:19.178Z,4.70
2019-03-26T04:23:47.820Z,5.10
2019-03-26T04:26:16.368Z,4.80
2019-03-26T04:28:44.944Z,4.67
2019-03-26T04:31:13.761Z,5.03
2019-03-26T04:33:42.276Z,5.83
2019-03-26T04:36:24.494Z,5.97
2019-03-26T04:38:41.013Z,5.13
2019-03-26T04:41:09.520Z,4.80
2019-03-26T04:43:38.080Z,3.83
2019-03-26T04:46:06.761Z,3.50
2019-03-26T04:48:35.390Z,4.00
2019-03-26T04:51:04.077Z,3.83
2019-03-26T04:53:34.214Z,3.13
2019-03-26T04:56:02.879Z,3.37
2019-03-26T04:58:31.359Z,3.50
2019-03-26T05:00:59.908Z,3.60
2019-03-26T05:03:29.397Z,4.17
2019-03-26T05:05:57.995Z,3.63
2019-03-26T05:08:26.503Z,4.30
2019-03-26T05:10:54.999Z,5.63
2019-03-26T05:13:23.548Z,4.50
2019-03-26T05:15:52.063Z,3.23
2019-03-26T05:18:20.599Z,3.80
2019-03-26T05:20:49.120Z,3.50
2019-03-26T05:23:17.809Z,2.93
2019-03-26T05:25:46.351Z,2.60
2019-03-26T05:28:14.903Z,4.20
2019-03-26T05:30:43.417Z,3.30
2019-03-26T05:33:12.083Z,2.90
2019-03-26T05:35:41.539Z,4.43
2019-03-26T05:38:10.076Z,3.80
2019-03-26T05:40:38.617Z,3.80
2019-03-26T05:43:07.332Z,3.00
2019-03-26T05:45:35.883Z,3.07
2019-03-26T05:48:04.571Z,4.60
2019-03-26T05:50:33.195Z,3.67
2019-03-26T05:53:01.772Z,5.33
2019-03-26T05:55:30.332Z,4.10
2019-03-26T05:57:58.902Z,4.77
2019-03-26T06:00:27.868Z,6.60
2019-03-26T06:02:56.451Z,3.93
2019-03-26T06:05:25.127Z,3.40
2019-03-26T06:07:53.693Z,3.60
2019-03-26T06:10:22.365Z,3.90
2019-03-26T06:12:50.868Z,4.10
2019-03-26T06:15:19.499Z,3.43
2019-03-26T06:17:48.203Z,3.50
2019-03-26T06:20:17.609Z,3.20
2019-03-26T06:22:46.183Z,4.10
2019-03-26T06:25:14.780Z,4.77
2019-03-26T06:27:43.475Z,4.87
2019-03-26T06:30:12.700Z,3.60
2019-03-26T06:32:41.292Z,3.40
2019-03-26T06:35:10.116Z,3.30
2019-03-26T06:37:38.681Z,4.03
2019-03-26T06:40:09.563Z,4.30
2019-03-26T06:42:38.199Z,4.90
2019-03-26T06:45:08.316Z,3.83
2019-03-26T06:47:36.930Z,4.53
2019-03-26T06:50:08.530Z,4.30
2019-03-26T06:52:37.170Z,4.77
2019-03-26T06:55:07.780Z,3.93
2019-03-26T06:57:37.098Z,4.40
2019-03-26T07:00:07.884Z,4.00
2019-03-26T07:02:36.560Z,4.37
2019-03-26T07:05:06.208Z,4.50
2019-03-26T07:07:34.923Z,4.30
2019-03-26T07:10:05.320Z,4.30
2019-03-26T07:12:33.874Z,5.33
2019-03-26T07:15:02.458Z,4.83
2019-03-26T07:17:31.286Z,5.50
2019-03-26T07:19:59.952Z,4.50
2019-03-26T07:22:28.627Z,5.20
2019-03-26T07:24:57.724Z,4.67
2019-03-26T07:27:26.358Z,6.00
2019-03-26T07:29:54.937Z,6.10
2019-03-26T07:32:23.566Z,5.17
2019-03-26T07:34:52.097Z,5.10
2019-03-26T07:37:20.893Z,6.07
2019-03-26T07:39:49.444Z,7.13
2019-03-26T07:42:18.191Z,6.40
2019-03-26T07:44:46.991Z,5.80
2019-03-26T07:47:15.560Z,5.27
2019-03-26T07:49:44.106Z,5.17
2019-03-26T07:52:15.498Z,5.10
2019-03-26T07:54:43.110Z,4.17
2019-03-26T07:57:11.814Z,4.90
2019-03-26T07:59:40.719Z,5.07
2019-03-26T08:02:09.507Z,4.40
2019-03-26T08:04:38.394Z,3.67
2019-03-26T08:07:06.889Z,3.60
2019-03-26T08:09:35.502Z,3.10
2019-03-26T08:12:04.112Z,2.10
2019-03-26T08:14:32.715Z,3.53
2019-03-26T08:17:01.633Z,2.20
2019-03-26T08:19:30.564Z,2.10
2019-03-26T08:21:59.076Z,2.83
2019-03-26T08:24:27.668Z,2.57
2019-03-26T08:26:56.178Z,3.23
2019-03-26T08:29:24.679Z,3.20
2019-03-26T08:31:53.233Z,3.17
2019-03-26T08:34:21.733Z,3.77
2019-03-26T08:36:50.301Z,3.53
2019-03-26T08:39:18.945Z,2.80
2019-03-26T08:41:47.481Z,3.30
2019-03-26T08:44:16.095Z,2.63
2019-03-26T08:46:46.316Z,3.40
2019-03-26T08:49:15.315Z,2.30
2019-03-26T08:51:43.826Z,2.67
2019-03-26T08:54:12.354Z,2.13
2019-03-26T08:56:40.980Z,2.17
2019-03-26T08:59:09.591Z,2.03
2019-03-26T09:01:38.299Z,1.70
2019-03-26T09:04:06.766Z,2.93
2019-03-26T09:06:35.269Z,1.80
2019-03-26T09:09:06.014Z,1.37
2019-03-26T09:11:34.472Z,1.87
2019-03-26T09:14:03.128Z,2.20
2019-03-26T09:16:31.704Z,1.60
2019-03-26T09:19:00.384Z,1.50
2019-03-26T09:21:34.675Z,2.90
2019-03-26T09:24:03.196Z,2.33
2019-03-26T09:26:31.702Z,2.23
2019-03-26T09:29:01.189Z,1.67
2019-03-26T09:31:29.759Z,2.40
2019-03-26T09:33:59.315Z,2.30
2019-03-26T09:36:28.110Z,2.83
2019-03-26T09:38:56.864Z,2.30
2019-03-26T09:41:26.995Z,2.13
2019-03-26T09:43:55.644Z,2.07
2019-03-26T09:46:24.299Z,2.60
2019-03-26T09:48:59.023Z,2.97
2019-03-26T09:51:27.813Z,3.20
2019-03-26T09:53:56.404Z,2.30
2019-03-26T09:56:32.049Z,2.37
2019-03-26T09:58:59.198Z,2.40
2019-03-26T10:01:27.705Z,2.17
2019-03-26T10:03:56.576Z,3.13
2019-03-26T10:06:25.453Z,2.00
2019-03-26T10:08:54.405Z,1.77
2019-03-26T10:11:32.112Z,2.27
2019-03-26T10:14:00.653Z,2.10
2019-03-26T10:16:29.716Z,3.20
2019-03-26T10:18:58.325Z,1.80
2019-03-26T10:21:26.955Z,1.80
2019-03-26T10:23:55.681Z,2.80
2019-03-26T10:26:24.462Z,2.10
2019-03-26T10:28:53.319Z,2.90
2019-03-26T10:31:23.864Z,1.90
2019-03-26T10:33:52.442Z,2.43
2019-03-26T10:36:21.119Z,1.67
2019-03-26T10:38:49.606Z,2.83
2019-03-26T10:41:18.785Z,1.90
2019-03-26T10:43:47.644Z,1.80
2019-03-26T10:46:24.067Z,1.87
2019-03-26T10:48:52.629Z,2.17
2019-03-26T10:51:21.241Z,1.40
2019-03-26T10:53:49.787Z,1.70
2019-03-26T10:56:19.107Z,2.20
2019-03-26T10:58:47.583Z,1.70
2019-03-26T11:01:16.152Z,1.73
2019-03-26T11:03:44.679Z,2.60
2019-03-26T11:06:13.359Z,1.50
2019-03-26T11:08:44.961Z,3.20
2019-03-26T11:11:12.207Z,2.10
2019-03-26T11:13:40.795Z,2.00
2019-03-26T11:16:09.399Z,1.97
2019-03-26T11:18:37.991Z,1.63
2019-03-26T11:21:06.572Z,1.63
2019-03-26T11:23:35.344Z,1.30
2019-03-26T11:26:03.937Z,1.70
2019-03-26T11:28:32.512Z,1.17
2019-03-26T11:31:02.886Z,1.20
2019-03-26T11:33:31.594Z,1.43
2019-03-26T11:36:00.160Z,1.33
2019-03-26T11:38:28.838Z,2.40
2019-03-26T11:40:57.634Z,1.70
2019-03-26T11:43:27.379Z,1.53
2019-03-26T11:45:56.199Z,2.40
2019-03-26T11:48:25.094Z,1.70
2019-03-26T11:50:53.799Z,1.67
2019-03-26T11:53:22.561Z,1.27
2019-03-26T11:55:51.198Z,2.13
2019-03-26T11:58:29.985Z,1.30
2019-03-26T12:00:50.066Z,1.90
2019-03-26T12:03:18.758Z,1.80
2019-03-26T12:05:48.350Z,2.00
2019-03-26T12:08:16.803Z,1.50
2019-03-26T12:10:45.392Z,1.90
2019-03-26T12:13:21.664Z,2.33
2019-03-26T12:15:51.060Z,2.17
2019-03-26T12:18:19.711Z,1.87
2019-03-26T12:20:48.423Z,2.30
2019-03-26T12:23:17.007Z,2.07
2019-03-26T12:25:45.628Z,2.07
2019-03-26T12:28:14.315Z,1.67
2019-03-26T12:30:42.924Z,1.87
2019-03-26T12:33:11.716Z,2.07
2019-03-26T12:35:40.554Z,1.60
2019-03-26T12:38:18.985Z,2.30
2019-03-26T12:40:51.255Z,1.80
2019-03-26T12:43:19.951Z,1.93
2019-03-26T12:45:48.712Z,2.37
2019-03-26T12:48:17.270Z,1.87
2019-03-26T12:50:45.767Z,2.87
2019-03-26T12:53:14.260Z,2.90
2019-03-26T12:55:42.837Z,2.60
2019-03-26T12:58:11.334Z,2.93
2019-03-26T13:00:47.634Z,2.70
2019-03-26T13:03:16.285Z,2.53
2019-03-26T13:05:45.012Z,2.80
2019-03-26T13:08:13.749Z,2.27
2019-03-26T13:10:52.755Z,3.33
2019-03-26T13:13:12.903Z,3.40
2019-03-26T13:15:41.563Z,3.57
2019-03-26T13:18:11.288Z,3.37
2019-03-26T13:20:40.063Z,3.37
2019-03-26T13:23:08.663Z,4.00
2019-03-26T13:25:37.343Z,3.67
2019-03-26T13:28:06.001Z,3.70
2019-03-26T13:30:34.488Z,3.50
2019-03-26T13:33:07.617Z,2.80
2019-03-26T13:35:36.179Z,3.77
2019-03-26T13:38:07.917Z,3.70
2019-03-26T13:40:36.417Z,3.60
2019-03-26T13:43:05.842Z,3.40
2019-03-26T13:45:34.392Z,3.73
2019-03-26T13:48:02.977Z,3.80
2019-03-26T13:50:31.527Z,3.90
2019-03-26T13:53:00.120Z,4.10
2019-03-26T13:55:28.659Z,4.47
2019-03-26T13:57:57.178Z,4.70
2019-03-26T14:00:33.340Z,4.47
2019-03-26T14:03:01.911Z,4.10
2019-03-26T14:05:30.735Z,3.97
2019-03-26T14:07:59.367Z,5.03
2019-03-26T14:10:40.166Z,5.20
2019-03-26T14:12:58.217Z,4.70
2019-03-26T14:15:26.891Z,4.23
2019-03-26T14:17:55.756Z,5.53
2019-03-26T14:20:24.253Z,5.20
2019-03-26T14:23:06.784Z,6.10
2019-03-26T14:25:35.427Z,6.83
2019-03-26T14:28:03.944Z,7.17
2019-03-26T14:30:56.031Z,6.90
2019-03-26T14:33:24.576Z,6.90
2019-03-26T14:35:53.077Z,6.90
2019-03-26T14:38:21.565Z,5.53
2019-03-26T14:40:55.158Z,7.23
2019-03-26T14:43:21.162Z,6.20
2019-03-26T14:45:49.597Z,6.83
2019-03-26T14:48:18.231Z,6.50
2019-03-26T14:50:46.725Z,5.97
2019-03-26T14:53:15.146Z,4.30
2019-03-26T14:55:43.593Z,5.00
2019-03-26T14:58:12.039Z,4.57
2019-03-26T15:00:40.548Z,4.00
2019-03-26T15:03:08.971Z,5.10
2019-03-26T15:05:37.432Z,5.00
2019-03-26T15:08:05.925Z,4.70
2019-03-26T15:10:34.485Z,4.53
2019-03-26T15:13:02.900Z,4.13
2019-03-26T15:15:31.339Z,4.40
2019-03-26T15:17:59.777Z,4.17
2019-03-26T15:20:28.222Z,4.10
2019-03-26T15:22:58.091Z,3.73
2019-03-26T15:25:26.775Z,5.13
2019-03-26T15:27:55.209Z,4.60
2019-03-26T15:30:23.649Z,4.70
2019-03-26T15:32:53.065Z,4.70
2019-03-26T15:35:21.566Z,5.13
2019-03-26T15:37:50.008Z,4.73
2019-03-26T15:40:18.603Z,4.47
2019-03-26T15:42:47.053Z,5.20
2019-03-26T15:45:15.955Z,5.03
2019-03-26T15:47:44.404Z,4.90
2019-03-26T15:50:13.588Z,4.57
2019-03-26T15:52:42.382Z,5.00
2019-03-26T15:55:11.822Z,4.63
2019-03-26T15:57:40.258Z,4.80
2019-03-26T16:00:09.135Z,3.20
2019-03-26T16:02:37.596Z,5.10
2019-03-26T16:05:08.269Z,4.43
2019-03-26T16:07:37.542Z,5.30
2019-03-26T16:10:08.315Z,6.43
2019-03-26T16:12:41.282Z,5.13
2019-03-26T16:15:07.464Z,3.97
2019-03-26T16:17:35.903Z,5.37
2019-03-26T16:20:05.772Z,5.10
2019-03-26T16:22:34.206Z,4.00
2019-03-26T16:25:02.658Z,5.80
2019-03-26T16:27:31.365Z,3.90
2019-03-26T16:29:59.859Z,4.37
2019-03-26T16:32:28.282Z,4.13
2019-03-26T16:34:56.727Z,4.43
2019-03-26T16:37:25.415Z,3.17
2019-03-26T16:39:53.859Z,4.50
2019-03-26T16:42:22.294Z,4.83
2019-03-26T16:44:50.756Z,4.97
2019-03-26T16:47:19.195Z,5.47
2019-03-26T16:49:47.711Z,5.07
2019-03-26T16:52:16.154Z,4.50
2019-03-26T16:54:44.602Z,5.03
2019-03-26T16:57:13.034Z,5.63
2019-03-26T16:59:41.739Z,5.50
2019-03-26T17:02:10.168Z,5.70
2019-03-26T17:04:38.624Z,5.33
2019-03-26T17:07:07.053Z,5.73
2019-03-26T17:09:35.498Z,5.33
2019-03-26T17:12:04.016Z,7.40
2019-03-26T17:14:32.528Z,6.97
2019-03-26T17:17:01.029Z,7.37
2019-03-26T17:19:32.473Z,6.50
2019-03-26T17:21:59.633Z,6.97
2019-03-26T17:24:28.075Z,7.60
2019-03-26T17:26:56.524Z,7.23
2019-03-26T17:29:24.980Z,7.13
2019-03-26T17:31:53.429Z,7.50
2019-03-26T17:34:21.876Z,6.70
2019-03-26T17:36:50.313Z,6.50
2019-03-26T17:39:18.776Z,6.17
2019-03-26T17:41:47.196Z,7.07
2019-03-26T17:44:15.646Z,6.17
2019-03-26T17:46:44.094Z,8.90
2019-03-26T17:49:12.553Z,5.90
2019-03-26T17:51:41.225Z,7.20
2019-03-26T17:54:10.303Z,7.00
2019-03-26T17:56:38.734Z,7.50
2019-03-26T17:59:07.184Z,7.13
2019-03-26T18:01:35.619Z,6.33
2019-03-26T18:04:04.216Z,6.50
2019-03-26T18:06:32.663Z,6.67
2019-03-26T18:09:01.125Z,6.90
2019-03-26T18:11:29.561Z,6.63
2019-03-26T18:13:58.004Z,5.97
2019-03-26T18:16:26.505Z,7.07
2019-03-26T18:18:55.127Z,6.77
2019-03-26T18:21:23.889Z,7.43
2019-03-26T18:23:52.427Z,7.77
2019-03-26T18:26:20.858Z,7.20
2019-03-26T18:28:49.799Z,7.93
2019-03-26T18:31:18.551Z,10.33
2019-03-26T18:33:47.010Z,8.37
2019-03-26T18:36:15.472Z,7.77
2019-03-26T18:38:43.935Z,8.10
2019-03-26T18:41:12.370Z,9.13
2019-03-26T18:43:40.989Z,8.70
2019-03-26T18:46:09.475Z,7.10
2019-03-26T18:48:40.156Z,8.00
2019-03-26T18:51:08.212Z,8.57
2019-03-26T18:53:36.669Z,8.80
2019-03-26T18:56:05.113Z,10.07
2019-03-26T18:58:33.579Z,8.43
2019-03-26T19:01:02.017Z,11.00
2019-03-26T19:03:30.552Z,10.90
2019-03-26T19:05:58.996Z,10.93
2019-03-26T19:08:27.449Z,11.73
2019-03-26T19:10:55.894Z,11.50
2019-03-26T19:13:24.359Z,11.17
2019-03-26T19:15:52.806Z,10.80
2019-03-26T19:18:21.251Z,10.60
2019-03-26T19:21:01.463Z,10.83
2019-03-26T19:23:19.881Z,11.00
2019-03-26T19:25:48.335Z,13.33
2019-03-26T19:28:16.778Z,11.37
2019-03-26T19:30:45.261Z,11.37
2019-03-26T19:33:13.718Z,11.73
2019-03-26T19:35:42.184Z,11.40
2019-03-26T19:38:10.629Z,12.50
2019-03-26T19:40:39.589Z,11.27
2019-03-26T19:43:11.389Z,10.73
2019-03-26T19:45:38.191Z,9.63
2019-03-26T19:48:07.515Z,9.80
2019-03-26T19:50:35.974Z,11.43
2019-03-26T19:53:04.422Z,12.10
2019-03-26T19:55:32.874Z,10.13
2019-03-26T19:58:01.314Z,9.93
2019-03-26T20:00:29.810Z,11.97
2019-03-26T20:02:58.256Z,11.53
2019-03-26T20:05:26.718Z,11.83
2019-03-26T20:07:55.162Z,10.57
2019-03-26T20:10:23.803Z,10.10
2019-03-26T20:12:52.419Z,11.00
2019-03-26T20:15:21.522Z,11.80
2019-03-26T20:17:49.970Z,10.57
2019-03-26T20:20:19.254Z,11.40
2019-03-26T20:22:47.790Z,10.50
2019-03-26T20:25:16.226Z,10.40
2019-03-26T20:27:44.694Z,10.93
2019-03-26T20:30:13.866Z,12.63
2019-03-26T20:32:42.319Z,11.30
2019-03-26T20:35:11.082Z,11.93
2019-03-26T20:37:39.543Z,10.73
2019-03-26T20:40:09.521Z,9.70
2019-03-26T20:42:38.528Z,11.30
2019-03-26T20:45:09.831Z,11.60
2019-03-26T20:47:38.456Z,10.97
2019-03-26T20:50:07.645Z,11.40
2019-03-26T20:52:36.193Z,11.17
2019-03-26T20:55:06.542Z,9.37
2019-03-26T20:57:34.999Z,10.33
2019-03-26T21:00:05.173Z,9.17
2019-03-26T21:02:33.609Z,8.53
2019-03-26T21:05:02.047Z,8.80
2019-03-26T21:07:30.503Z,10.07
2019-03-26T21:09:58.950Z,28.77
2019-03-26T21:12:27.385Z,8.43
2019-03-26T21:14:55.832Z,8.63
2019-03-26T21:17:24.269Z,10.90
2019-03-26T21:19:52.723Z,7.37
2019-03-26T21:22:21.176Z,8.30
2019-03-26T21:24:49.618Z,8.77
2019-03-26T21:27:18.077Z,8.27
2019-03-26T21:29:46.517Z,8.50
2019-03-26T21:32:14.944Z,9.90
2019-03-26T21:34:43.521Z,8.10
2019-03-26T21:37:12.007Z,8.30
2019-03-26T21:39:40.440Z,9.10
2019-03-26T21:42:08.899Z,9.03
2019-03-26T21:44:37.365Z,7.83
2019-03-26T21:47:05.794Z,8.10
2019-03-26T21:49:34.231Z,7.60
2019-03-26T21:52:03.224Z,9.30
2019-03-26T21:54:31.677Z,8.70
2019-03-26T21:57:00.154Z,9.30
2019-03-26T21:59:28.583Z,9.97
2019-03-26T22:01:57.019Z,8.63
2019-03-26T22:04:25.478Z,10.90
2019-03-26T22:06:53.931Z,9.20
2019-03-26T22:09:22.434Z,8.13
2019-03-26T22:11:50.868Z,8.93
2019-03-26T22:14:19.327Z,7.23
2019-03-26T22:16:47.784Z,8.40
2019-03-26T22:19:27.959Z,7.57
2019-03-26T22:21:47.069Z,7.90
2019-03-26T22:24:17.125Z,6.70
2019-03-26T22:26:45.870Z,6.37
2019-03-26T22:29:14.324Z,8.47
2019-03-26T22:31:42.774Z,6.37
2019-03-26T22:34:11.224Z,6.40
2019-03-26T22:36:39.694Z,8.10
2019-03-26T22:39:08.272Z,6.10
2019-03-26T22:41:36.698Z,5.97
2019-03-26T22:44:05.155Z,5.60
2019-03-26T22:46:33.577Z,6.20
2019-03-26T22:49:02.013Z,5.50
2019-03-26T22:51:30.460Z,6.53
2019-03-26T22:53:58.897Z,6.50
2019-03-26T22:56:27.334Z,6.30
2019-03-26T22:58:55.837Z,6.47
2019-03-26T23:01:24.343Z,6.00
2019-03-26T23:03:52.783Z,5.70
2019-03-26T23:06:21.218Z,5.80
2019-03-26T23:08:49.656Z,5.27
2019-03-26T23:11:18.093Z,6.30
2019-03-26T23:13:46.602Z,6.30
2019-03-26T23:16:15.037Z,5.70
2019-03-26T23:18:43.477Z,5.87
2019-03-26T23:21:11.977Z,5.90
2019-03-26T23:23:40.482Z,5.03
2019-03-26T23:26:08.910Z,4.77
2019-03-26T23:28:37.371Z,5.77
2019-03-26T23:31:05.876Z,7.00
2019-03-26T23:33:34.308Z,4.87
2019-03-26T23:36:02.734Z,5.60
2019-03-26T23:38:31.186Z,5.83
2019-03-26T23:40:59.682Z,5.83
2019-03-26T23:43:28.132Z,5.80
2019-03-26T23:45:56.571Z,5.10
2019-03-26T23:48:25.039Z,6.43
2019-03-26T23:50:53.555Z,5.33
2019-03-26T23:53:21.998Z,5.50
2019-03-26T23:55:50.441Z,5.07
2019-03-26T23:58:18.894Z,5.60
